Time;durP1;ratioP1;P1;durP2;ratioP2;P2;SDS_P1;SDS_P2;PMS_P1;PMS_P2;Temp;Humidity;BMP_temperature;BMP_pressure;BME280_temperature;BME280_humidity;BME280_pressure;Samples;Min_cycle;Max_cycle;Signal;HPM_P1;HPM_P2
2022/03/11 00:00:01;;;;;;;11.18;6.32;;;;;;;-1.74;38.49;102102.97;5054036;28;20077;-76
2022/03/11 00:02:28;;;;;;;18.20;7.03;;;;;;;-1.76;38.69;102109.84;5052084;28;20059;-71
2022/03/11 00:04:55;;;;;;;11.60;5.53;;;;;;;-1.77;38.61;102108.09;5055963;28;20438;-70
2022/03/11 00:07:22;;;;;;;12.88;6.82;;;;;;;-1.78;38.66;102108.13;5061239;28;20268;-78
2022/03/11 00:09:50;;;;;;;12.93;6.03;;;;;;;-1.78;38.90;102106.38;5063136;28;20079;-69
2022/03/11 00:12:17;;;;;;;10.48;5.10;;;;;;;-1.80;38.99;102102.91;5061766;28;20477;-70
2022/03/11 00:14:44;;;;;;;11.40;5.55;;;;;;;-1.82;38.82;102107.22;5060576;28;20072;-70
2022/03/11 00:17:12;;;;;;;15.70;6.40;;;;;;;-1.84;38.72;102100.28;5060870;28;20068;-70
2022/03/11 00:19:41;;;;;;;15.27;6.88;;;;;;;-1.87;38.80;102101.13;5060739;28;20087;-78
2022/03/11 00:22:08;;;;;;;11.25;5.25;;;;;;;-1.90;39.00;102102.81;5060443;28;20113;-70
2022/03/11 00:24:35;;;;;;;12.75;6.25;;;;;;;-1.93;39.08;102101.06;5061172;28;20091;-75
2022/03/11 00:27:02;;;;;;;10.27;5.40;;;;;;;-1.95;38.99;102097.59;5052911;28;20132;-70
2022/03/11 00:29:29;;;;;;;14.07;6.78;;;;;;;-1.95;39.12;102098.44;5054148;28;20138;-71
2022/03/11 00:31:56;;;;;;;11.35;7.18;;;;;;;-1.99;39.36;102098.44;5051879;28;20045;-77
2022/03/11 00:34:24;;;;;;;12.32;5.25;;;;;;;-2.00;39.32;102094.09;5053432;28;20489;-70
2022/03/11 00:36:51;;;;;;;11.27;6.72;;;;;;;-2.04;39.00;102094.94;5053159;28;20049;-76
2022/03/11 00:39:18;;;;;;;14.55;6.72;;;;;;;-2.07;39.19;102088.00;5053676;28;20041;-75
2022/03/11 00:41:45;;;;;;;9.77;5.53;;;;;;;-2.08;39.47;102094.03;5049748;28;20542;-76
2022/03/11 00:44:12;;;;;;;10.93;5.53;;;;;;;-2.10;39.23;102100.06;5047684;28;20084;-73
2022/03/11 00:46:39;;;;;;;15.55;5.95;;;;;;;-2.14;39.45;102097.44;5047300;28;20048;-75
2022/03/11 00:49:06;;;;;;;12.60;7.30;;;;;;;-2.16;39.46;102093.06;5050678;28;20140;-79
2022/03/11 00:51:34;;;;;;;12.18;4.75;;;;;;;-2.18;39.47;102095.69;5050816;28;20056;-78
2022/03/11 00:54:02;;;;;;;13.52;5.90;;;;;;;-2.21;39.62;102095.63;5048290;28;20099;-84
2022/03/11 00:56:30;;;;;;;10.70;4.72;;;;;;;-2.20;39.59;102097.34;5050616;28;20485;-80
2022/03/11 00:58:57;;;;;;;11.48;5.13;;;;;;;-2.20;39.34;102101.66;5050601;28;20045;-80
2022/03/11 01:01:24;;;;;;;15.65;7.20;;;;;;;-2.25;39.57;102100.75;5048799;28;20045;-82
2022/03/11 01:03:51;;;;;;;10.68;5.43;;;;;;;-2.25;39.07;102103.34;5048653;28;20052;-71
2022/03/11 01:06:18;;;;;;;18.23;7.95;;;;;;;-2.27;39.70;102105.91;5049265;28;20547;-73
2022/03/11 01:08:46;;;;;;;16.73;6.85;;;;;;;-2.28;39.54;102101.59;5048487;28;20148;-79
2022/03/11 01:11:14;;;;;;;10.93;5.70;;;;;;;-2.29;39.58;102101.59;5049556;28;20144;-79
2022/03/11 01:13:41;;;;;;;17.20;7.30;;;;;;;-2.32;39.69;102097.25;5049426;28;20053;-81
2022/03/11 01:16:08;;;;;;;20.50;9.27;;;;;;;-2.34;39.49;102098.94;5049209;28;20690;-78
2022/03/11 01:18:35;;;;;;;18.08;8.18;;;;;;;-2.39;39.67;102098.03;5055166;28;20049;-81
2022/03/11 01:21:03;;;;;;;16.58;6.53;;;;;;;-2.39;39.90;102100.63;5049891;28;20699;-74
2022/03/11 01:23:30;;;;;;;18.38;9.82;;;;;;;-2.43;39.93;102098.84;5051308;28;20106;-76
2022/03/11 01:26:00;;;;;;;17.40;7.63;;;;;;;-2.47;39.85;102102.25;5051431;28;20141;-80
2022/03/11 01:28:27;;;;;;;16.15;8.80;;;;;;;-2.50;39.88;102101.38;5051740;28;20041;-75
2022/03/11 01:30:54;;;;;;;15.82;7.70;;;;;;;-2.53;39.67;102101.31;5059573;28;20104;-83
2022/03/11 01:33:21;;;;;;;16.85;8.00;;;;;;;-2.57;39.92;102107.31;5048961;28;20162;-81
2022/03/11 01:35:48;;;;;;;14.98;7.63;;;;;;;-2.58;39.71;102113.34;5052739;28;20049;-82
2022/03/11 01:38:15;;;;;;;20.48;8.23;;;;;;;-2.62;39.81;102108.97;5049512;28;20053;-75
2022/03/11 01:40:42;;;;;;;19.35;9.68;;;;;;;-2.65;40.13;102106.34;5044740;28;20056;-74
2022/03/11 01:43:18;;;;;;;14.23;7.53;;;;;;;-2.66;40.04;102112.41;5043786;28;20049;-72
2022/03/11 01:45:47;;;;;;;12.70;6.47;;;;;;;-2.69;39.97;102117.53;5045230;28;20053;-73
2022/03/11 01:48:14;;;;;;;14.43;6.13;;;;;;;-2.72;40.11;102122.66;5044538;28;20050;-69
2022/03/11 01:50:42;;;;;;;21.33;8.52;;;;;;;-2.79;40.10;102113.97;5042975;28;20058;-75
2022/03/11 01:53:10;;;;;;;19.15;8.57;;;;;;;-2.85;40.35;102110.41;5028489;28;20051;-70
2022/03/11 01:55:38;;;;;;;16.30;7.72;;;;;;;-2.92;40.41;102110.34;5029703;28;20079;-74
2022/03/11 01:58:07;;;;;;;17.58;8.15;;;;;;;-2.96;40.37;102111.16;5028711;28;20053;-73
2022/03/11 02:00:38;;;;;;;21.95;7.15;;;;;;;-2.97;40.56;102105.94;5030124;28;20149;-75
2022/03/11 02:03:05;;;;;;;22.30;8.45;;;;;;;-3.03;40.60;102122.25;5030561;28;20064;-73
2022/03/11 02:05:32;;;;;;;18.00;8.02;;;;;;;-3.06;40.63;102119.66;5030019;28;20172;-74
2022/03/11 02:08:00;;;;;;;20.50;7.95;;;;;;;-3.09;40.62;102122.19;5030791;28;20088;-76
2022/03/11 02:10:29;;;;;;;20.10;8.82;;;;;;;-3.13;40.98;102121.28;5031778;28;20045;-72
2022/03/11 02:12:57;;;;;;;18.23;7.85;;;;;;;-3.13;41.01;102133.34;5031827;28;20045;-72
2022/03/11 02:15:24;;;;;;;17.73;7.57;;;;;;;-3.17;40.73;102134.13;5030866;28;20518;-77
2022/03/11 02:17:53;;;;;;;15.45;7.30;;;;;;;-3.16;40.62;102135.88;5035662;28;20537;-71
2022/03/11 02:20:21;;;;;;;15.70;8.23;;;;;;;-3.18;40.67;102140.16;5030774;28;20048;-83
2022/03/11 02:22:51;;;;;;;14.48;6.75;;;;;;;-3.23;40.80;102142.66;5031932;28;20137;-68
2022/03/11 02:25:20;;;;;;;21.33;9.63;;;;;;;-3.24;41.11;102140.03;5034765;28;20041;-80
2022/03/11 02:27:47;;;;;;;21.58;7.65;;;;;;;-3.28;41.03;102139.13;5031583;28;20084;-69
2022/03/11 02:30:15;;;;;;;15.32;7.10;;;;;;;-3.28;41.04;102144.28;5031695;28;20052;-78
2022/03/11 02:32:43;;;;;;;19.10;9.00;;;;;;;-3.33;40.87;102136.50;5032580;28;20042;-86
2022/03/11 02:35:11;;;;;;;28.05;9.27;;;;;;;-3.35;40.89;102143.34;5033247;28;20049;-75
2022/03/11 02:37:38;;;;;;;23.67;9.57;;;;;;;-3.40;41.11;102142.41;5033384;28;20159;-82
2022/03/11 02:40:07;;;;;;;16.25;7.57;;;;;;;-3.43;41.25;102146.66;5034593;28;20129;-75
2022/03/11 02:42:35;;;;;;;23.00;8.98;;;;;;;-3.47;41.26;102141.44;5038877;28;20080;-73
2022/03/11 02:45:05;;;;;;;16.50;8.20;;;;;;;-3.50;41.17;102145.69;5043642;28;20337;-69
2022/03/11 02:47:32;;;;;;;14.77;8.10;;;;;;;-3.52;41.23;102139.63;5036874;28;20424;-70
2022/03/11 02:49:59;;;;;;;15.48;7.40;;;;;;;-3.56;41.40;102143.00;5039934;28;20045;-70
2022/03/11 02:52:28;;;;;;;18.85;9.43;;;;;;;-3.58;41.18;102147.25;5053892;28;20040;-76
2022/03/11 02:54:55;;;;;;;27.05;8.75;;;;;;;-3.61;41.32;102144.66;5053614;28;20049;-73
2022/03/11 02:57:23;;;;;;;20.55;8.75;;;;;;;-3.62;41.26;102148.06;5052401;28;20045;-71
2022/03/11 02:59:51;;;;;;;25.10;9.48;;;;;;;-3.66;41.53;102144.56;5052781;28;20123;-75
2022/03/11 03:02:19;;;;;;;15.80;7.25;;;;;;;-3.67;41.46;102143.69;5052079;28;20526;-69
2022/03/11 03:04:46;;;;;;;17.05;7.47;;;;;;;-3.69;41.58;102142.81;5051881;28;20052;-82
2022/03/11 03:07:13;;;;;;;15.85;7.60;;;;;;;-3.72;41.29;102145.31;5052080;28;20061;-88
2022/03/11 03:09:41;;;;;;;13.52;6.47;;;;;;;-3.74;41.57;102141.84;5051024;28;20041;-79
2022/03/11 03:12:10;;;;;;;16.33;6.90;;;;;;;-3.74;41.59;102134.09;5051428;28;20045;-79
2022/03/11 03:14:37;;;;;;;15.30;7.90;;;;;;;-3.75;41.52;102145.25;5055754;28;20132;-82
2022/03/11 03:17:06;;;;;;;16.88;7.45;;;;;;;-3.77;41.56;102149.53;5050478;28;20143;-74
2022/03/11 03:19:35;;;;;;;13.52;7.15;;;;;;;-3.79;41.48;102147.78;5058329;28;20053;-70
2022/03/11 03:22:02;;;;;;;16.40;9.00;;;;;;;-3.79;41.71;102142.63;5061944;28;20272;-70
2022/03/11 03:24:29;;;;;;;17.23;7.00;;;;;;;-3.76;41.60;102145.22;5061807;28;20104;-72
2022/03/11 03:26:56;;;;;;;9.98;5.43;;;;;;;-3.74;41.54;102146.16;5061296;28;20092;-68
2022/03/11 03:29:24;;;;;;;12.52;6.55;;;;;;;-3.76;41.59;102138.38;5058758;28;20088;-68
2022/03/11 03:31:57;;;;;;;18.27;8.80;;;;;;;-3.76;41.91;102143.53;5057524;28;20109;-68
2022/03/11 03:34:28;;;;;;;19.70;7.00;;;;;;;-3.76;41.78;102142.66;5058573;28;20126;-69
2022/03/11 03:36:56;;;;;;;13.80;7.80;;;;;;;-3.78;41.82;102140.06;5061266;28;20063;-71
2022/03/11 03:39:23;;;;;;;13.60;7.70;;;;;;;-3.79;41.99;102140.03;5064908;28;20056;-68
2022/03/11 03:41:50;;;;;;;17.52;8.40;;;;;;;-3.81;41.87;102146.91;5067999;28;20048;-69
2022/03/11 03:44:17;;;;;;;15.23;6.72;;;;;;;-3.82;42.00;102148.59;5067186;28;20055;-68
2022/03/11 03:46:44;;;;;;;16.45;7.97;;;;;;;-3.82;41.91;102142.56;5066515;28;20063;-69
2022/03/11 03:49:11;;;;;;;14.05;5.53;;;;;;;-3.84;42.07;102132.19;5066706;28;20104;-80
2022/03/11 03:51:42;;;;;;;18.77;7.55;;;;;;;-3.84;41.99;102135.66;5065846;28;20062;-71
2022/03/11 03:54:10;;;;;;;20.17;7.65;;;;;;;-3.84;41.97;102140.81;5062680;28;20695;-73
2022/03/11 03:56:38;;;;;;;14.45;7.38;;;;;;;-3.83;42.12;102136.53;5063214;28;20132;-71
2022/03/11 03:59:05;;;;;;;21.40;8.18;;;;;;;-3.85;42.08;102144.25;5066662;28;20097;-69
2022/03/11 04:01:34;;;;;;;18.35;8.48;;;;;;;-3.86;42.16;102136.47;5067155;28;20314;-70
2022/03/11 04:04:02;;;;;;;18.05;8.63;;;;;;;-3.88;42.19;102138.16;5067761;28;20044;-74
2022/03/11 04:06:32;;;;;;;14.05;7.78;;;;;;;-3.91;42.34;102144.13;5065478;28;20049;-71
2022/03/11 04:09:03;;;;;;;15.18;6.90;;;;;;;-3.92;42.44;102138.97;5066046;28;20049;-70
2022/03/11 04:11:30;;;;;;;13.43;7.57;;;;;;;-3.96;42.39;102140.63;5064351;28;20112;-69
2022/03/11 04:13:58;;;;;;;20.30;8.90;;;;;;;-3.99;42.30;102140.56;5054964;28;20581;-75
2022/03/11 04:16:26;;;;;;;17.10;8.38;;;;;;;-4.04;42.56;102126.69;5051384;28;20049;-78
2022/03/11 04:18:54;;;;;;;16.15;9.13;;;;;;;-4.05;42.55;102143.03;5049893;28;20134;-76
2022/03/11 04:21:22;;;;;;;19.23;10.60;;;;;;;-4.09;42.68;102139.53;5046169;28;20049;-67
2022/03/11 04:23:50;;;;;;;23.98;8.18;;;;;;;-4.11;42.77;102148.94;5046761;28;20125;-76
2022/03/11 04:26:19;;;;;;;17.27;8.38;;;;;;;-4.17;42.76;102148.84;5047616;28;20052;-75
2022/03/11 04:28:46;;;;;;;17.75;7.90;;;;;;;-4.21;42.82;102149.63;5048064;28;20049;-74
2022/03/11 04:31:14;;;;;;;16.45;7.88;;;;;;;-4.25;42.75;102159.00;5047842;28;20139;-76
2022/03/11 04:33:43;;;;;;;15.93;7.45;;;;;;;-4.27;42.74;102154.66;5047765;28;20061;-74
2022/03/11 04:36:10;;;;;;;16.50;7.50;;;;;;;-4.34;42.88;102151.09;5047912;28;20132;-78
2022/03/11 04:38:37;;;;;;;9.38;6.30;;;;;;;-4.33;42.72;102154.53;5047554;28;20055;-77
2022/03/11 04:41:05;;;;;;;14.90;8.07;;;;;;;-4.34;42.71;102152.78;5046206;28;20120;-77
2022/03/11 04:43:33;;;;;;;15.88;7.57;;;;;;;-4.35;43.08;102146.78;5046417;28;20044;-72
2022/03/11 04:46:00;;;;;;;20.00;10.00;;;;;;;-4.39;43.08;102146.66;5028265;28;20045;-77
2022/03/11 04:48:28;;;;;;;16.48;8.98;;;;;;;-4.44;43.26;102147.44;5046878;28;20051;-77
2022/03/11 04:50:56;;;;;;;18.00;7.70;;;;;;;-4.43;43.05;102141.47;5046804;28;20053;-73
2022/03/11 04:53:23;;;;;;;17.90;9.00;;;;;;;-4.43;42.98;102140.56;5044417;28;20515;-68
2022/03/11 04:55:50;;;;;;;16.15;7.28;;;;;;;-4.45;43.23;102148.31;5046980;28;20072;-68
2022/03/11 04:58:17;;;;;;;13.63;7.53;;;;;;;-4.44;43.27;102152.63;5046182;28;20049;-68
2022/03/11 05:00:46;;;;;;;17.20;8.82;;;;;;;-4.43;43.32;102154.38;5044335;28;20376;-67
2022/03/11 05:03:13;;;;;;;15.68;7.63;;;;;;;-4.45;43.12;102145.72;5044485;28;20143;-75
2022/03/11 05:05:40;;;;;;;14.55;8.40;;;;;;;-4.44;43.11;102152.63;5046274;28;20076;-68
2022/03/11 05:08:07;;;;;;;18.20;6.70;;;;;;;-4.43;43.02;102149.22;5046885;28;20049;-71
2022/03/11 05:10:34;;;;;;;18.75;8.30;;;;;;;-4.43;43.06;102156.06;5045891;28;20493;-73
2022/03/11 05:13:01;;;;;;;16.50;7.38;;;;;;;-4.46;42.97;102151.72;5044729;28;20109;-68
2022/03/11 05:15:28;;;;;;;13.45;8.05;;;;;;;-4.45;43.03;102156.06;5050870;28;20053;-68
2022/03/11 05:17:56;;;;;;;22.60;7.97;;;;;;;-4.43;43.05;102154.38;5047423;28;20047;-71
2022/03/11 05:20:23;;;;;;;14.75;7.75;;;;;;;-4.39;43.02;102156.97;5046438;28;20524;-68
2022/03/11 05:22:51;;;;;;;15.43;5.80;;;;;;;-4.36;43.06;102152.75;5044027;28;20095;-73
2022/03/11 05:25:18;;;;;;;18.50;9.20;;;;;;;-4.29;42.65;102153.75;5047939;28;20060;-70
2022/03/11 05:27:45;;;;;;;16.15;7.85;;;;;;;-4.26;42.95;102151.25;5049912;28;20045;-69
2022/03/11 05:30:13;;;;;;;17.95;7.93;;;;;;;-4.21;42.87;102149.63;5049797;28;20052;-71
2022/03/11 05:32:42;;;;;;;18.85;8.93;;;;;;;-4.10;42.89;102150.69;5049732;28;20052;-71
2022/03/11 05:35:11;;;;;;;19.88;9.48;;;;;;;-4.04;43.06;102148.19;5048976;28;20101;-68
2022/03/11 05:37:39;;;;;;;26.90;12.38;;;;;;;-3.96;42.90;102147.47;5047647;28;20045;-66
2022/03/11 05:40:07;;;;;;;23.27;10.50;;;;;;;-3.91;43.16;102144.13;5047226;28;20047;-67
2022/03/11 05:42:34;;;;;;;33.92;16.38;;;;;;;-3.80;43.17;102141.72;5048306;28;20072;-71
2022/03/11 05:45:02;;;;;;;39.30;17.40;;;;;;;-3.73;43.25;102143.56;5048488;28;20049;-74
2022/03/11 05:47:29;;;;;;;47.25;21.92;;;;;;;-3.62;43.29;102148.06;5047002;28;20088;-71
2022/03/11 05:49:56;;;;;;;55.97;22.70;;;;;;;-3.56;43.36;102145.59;5048445;28;20057;-70
2022/03/11 05:52:25;;;;;;;39.20;19.27;;;;;;;-3.48;43.08;102149.16;5047701;28;20048;-76
2022/03/11 05:54:52;;;;;;;37.78;17.90;;;;;;;-3.39;43.06;102159.63;5046736;28;20109;-70
2022/03/11 05:57:19;;;;;;;28.00;13.25;;;;;;;-3.28;42.94;102163.28;5054420;28;20045;-71
2022/03/11 05:59:46;;;;;;;26.50;15.38;;;;;;;-3.21;43.00;102160.75;5049008;28;20120;-71
2022/03/11 06:02:13;;;;;;;23.75;11.13;;;;;;;-3.12;43.23;102158.31;5051918;28;20048;-74
2022/03/11 06:04:40;;;;;;;22.95;11.18;;;;;;;-3.03;43.18;102160.16;5052942;28;20113;-72
2022/03/11 06:07:07;;;;;;;24.00;10.05;;;;;;;-2.92;43.14;102162.06;5048431;28;20603;-71
2022/03/11 06:09:35;;;;;;;30.40;13.85;;;;;;;-2.84;43.16;102164.75;5046806;28;20049;-74
2022/03/11 06:12:02;;;;;;;30.95;15.93;;;;;;;-2.73;43.10;102168.34;5046588;28;20643;-72
2022/03/11 06:14:29;;;;;;;29.48;15.27;;;;;;;-2.60;43.08;102174.53;5044937;28;20060;-70
2022/03/11 06:16:56;;;;;;;31.38;15.98;;;;;;;-2.47;42.96;102170.38;5046512;28;20064;-72
2022/03/11 06:19:23;;;;;;;19.55;11.27;;;;;;;-2.39;43.09;102178.25;5047332;28;20045;-72
2022/03/11 06:21:50;;;;;;;12.85;6.88;;;;;;;-2.26;42.92;102174.97;5044185;28;20071;-71
2022/03/11 06:24:17;;;;;;;10.63;6.50;;;;;;;-2.08;42.63;102174.28;5044199;28;20052;-71
2022/03/11 06:26:46;;;;;;;14.90;7.22;;;;;;;-1.95;42.64;102170.97;5045794;28;20087;-71
2022/03/11 06:29:13;;;;;;;14.05;6.63;;;;;;;-1.85;42.47;102171.94;5047619;28;20653;-69
2022/03/11 06:31:40;;;;;;;20.00;8.55;;;;;;;-1.75;42.28;102171.19;5047142;28;20055;-75
2022/03/11 06:34:06;;;;;;;18.15;8.07;;;;;;;-1.63;42.26;102174.72;5048043;28;20682;-73
2022/03/11 06:36:34;;;;;;;14.50;7.47;;;;;;;-1.48;42.05;102181.75;5047397;28;20132;-73
2022/03/11 06:39:02;;;;;;;19.05;11.15;;;;;;;-1.36;41.74;102169.75;5048112;28;20520;-76
2022/03/11 06:41:29;;;;;;;14.68;7.22;;;;;;;-1.24;41.90;102171.59;5048090;28;20240;-75
2022/03/11 06:43:57;;;;;;;18.45;8.77;;;;;;;-1.11;41.77;102166.50;5045922;28;20080;-72
2022/03/11 06:46:24;;;;;;;18.05;9.35;;;;;;;-1.00;41.65;102170.88;5046713;28;20128;-74
2022/03/11 06:48:51;;;;;;;14.00;7.70;;;;;;;-0.89;41.08;102172.69;5049945;28;20548;-72
2022/03/11 06:51:18;;;;;;;15.95;8.30;;;;;;;-0.80;41.12;102170.13;5063863;28;20558;-73
2022/03/11 06:53:45;;;;;;;13.18;9.65;;;;;;;-0.66;40.61;102171.06;5064732;28;20059;-76
2022/03/11 06:56:12;;;;;;;16.80;7.90;;;;;;;-0.54;40.88;102174.56;5063697;28;20047;-73
2022/03/11 06:58:39;;;;;;;22.20;10.73;;;;;;;-0.45;40.39;102177.19;5064673;28;20051;-72
2022/03/11 07:01:08;;;;;;;15.45;6.28;;;;;;;-0.32;40.42;102178.16;5065490;28;20127;-73
2022/03/11 07:03:35;;;;;;;12.90;5.75;;;;;;;-0.24;40.47;102173.84;5064882;28;20048;-72
2022/03/11 07:06:04;;;;;;;13.45;6.40;;;;;;;-0.12;39.95;102167.81;5065841;28;20568;-78
2022/03/11 07:08:31;;;;;;;15.57;6.20;;;;;;;-0.02;39.86;102164.34;5066485;28;20628;-72
2022/03/11 07:10:58;;;;;;;12.85;6.65;;;;;;;0.08;39.66;102176.50;5064329;28;20139;-76
2022/03/11 07:13:26;;;;;;;13.25;6.60;;;;;;;0.16;39.78;102173.91;5064782;28;20346;-75
2022/03/11 07:15:53;;;;;;;16.25;8.68;;;;;;;0.28;39.37;102173.94;5065118;28;20133;-76
2022/03/11 07:18:22;;;;;;;13.20;7.75;;;;;;;0.40;39.25;102177.41;5065572;28;20055;-77
2022/03/11 07:20:49;;;;;;;14.25;6.40;;;;;;;0.46;38.76;102173.09;5064144;28;20045;-78
2022/03/11 07:23:16;;;;;;;12.25;5.65;;;;;;;0.59;38.85;102173.09;5063348;28;20457;-71
2022/03/11 07:25:43;;;;;;;16.30;7.90;;;;;;;0.69;38.70;102167.03;5064032;28;20051;-77
2022/03/11 07:28:11;;;;;;;16.20;8.68;;;;;;;0.79;38.19;102170.47;5067061;28;20142;-75
2022/03/11 07:30:38;;;;;;;15.07;7.75;;;;;;;0.87;37.86;102169.59;5067115;28;20055;-74
2022/03/11 07:33:07;;;;;;;13.27;6.25;;;;;;;0.98;37.41;102177.38;5066183;28;20079;-72
2022/03/11 07:35:36;;;;;;;12.40;6.68;;;;;;;1.10;37.57;102176.50;5064547;28;20055;-74
2022/03/11 07:38:02;;;;;;;11.30;6.10;;;;;;;1.22;37.26;102175.59;5064206;28;20205;-73
2022/03/11 07:40:29;;;;;;;12.18;4.88;;;;;;;1.24;37.18;102179.94;5064171;28;20036;-76
2022/03/11 07:42:56;;;;;;;11.75;6.72;;;;;;;1.30;37.18;102172.09;5064347;28;20048;-72
2022/03/11 07:45:24;;;;;;;15.82;6.07;;;;;;;1.43;37.04;102172.06;5064079;28;20094;-76
2022/03/11 07:47:51;;;;;;;11.63;5.95;;;;;;;1.52;36.58;102172.03;5064031;28;20080;-73
2022/03/11 07:50:18;;;;;;;13.13;6.65;;;;;;;1.60;36.18;102180.66;5045772;28;20123;-75
2022/03/11 07:52:46;;;;;;;7.65;4.65;;;;;;;1.69;35.80;102174.53;5060185;28;20041;-76
2022/03/11 07:55:13;;;;;;;10.52;5.80;;;;;;;1.74;35.58;102175.41;5063382;28;20079;-73
2022/03/11 07:57:40;;;;;;;13.88;6.47;;;;;;;1.82;34.69;102180.56;5065439;28;20621;-74
2022/03/11 08:00:09;;;;;;;14.45;7.18;;;;;;;1.89;34.32;102179.66;5064313;28;20044;-76
2022/03/11 08:02:37;;;;;;;12.65;5.22;;;;;;;1.89;34.61;102184.88;5074380;28;20127;-75
2022/03/11 08:05:06;;;;;;;8.93;5.07;;;;;;;1.92;34.61;102179.66;5066030;28;20148;-76
2022/03/11 08:07:34;;;;;;;12.07;4.80;;;;;;;2.04;34.44;102179.56;5063192;28;20150;-77
2022/03/11 08:10:02;;;;;;;7.25;6.57;;;;;;;2.16;34.47;102182.97;5062321;28;20124;-74
2022/03/11 08:12:29;;;;;;;8.25;4.28;;;;;;;2.19;34.02;102182.97;5065266;28;20054;-71
2022/03/11 08:14:57;;;;;;;9.02;4.18;;;;;;;2.30;34.07;102175.91;5063529;28;20059;-74
2022/03/11 08:17:25;;;;;;;9.20;4.68;;;;;;;2.36;33.81;102175.91;5062688;28;20054;-73
2022/03/11 08:19:52;;;;;;;5.95;2.55;;;;;;;2.43;33.78;102179.31;5062357;28;20059;-73
2022/03/11 08:22:19;;;;;;;7.30;3.83;;;;;;;2.48;33.22;102170.59;5062058;28;20055;-74
2022/03/11 08:24:46;;;;;;;9.10;5.00;;;;;;;2.53;32.01;102173.16;5062353;28;20079;-73
2022/03/11 08:27:15;;;;;;;8.82;4.53;;;;;;;2.55;32.38;102174.00;5063764;28;20102;-74
2022/03/11 08:29:43;;;;;;;9.27;5.53;;;;;;;2.68;31.55;102172.13;5061833;28;20075;-76
2022/03/11 08:32:11;;;;;;;7.00;4.05;;;;;;;2.80;31.75;102166.81;5063000;28;20053;-72
2022/03/11 08:34:38;;;;;;;8.25;4.43;;;;;;;2.97;31.58;102173.63;5063177;28;20037;-74
2022/03/11 08:37:06;;;;;;;9.80;4.35;;;;;;;3.18;31.31;102178.63;5062715;28;20052;-73
2022/03/11 08:39:33;;;;;;;9.15;5.03;;;;;;;3.17;31.27;102171.69;5069987;28;20544;-73
2022/03/11 08:42:04;;;;;;;5.25;2.97;;;;;;;3.25;31.49;102169.81;5069723;28;20049;-73
2022/03/11 08:44:33;;;;;;;10.80;4.35;;;;;;;3.31;31.39;102165.41;5073158;28;20041;-74
2022/03/11 08:47:00;;;;;;;5.07;3.78;;;;;;;3.41;31.12;102172.28;5073960;28;20087;-74
2022/03/11 08:49:27;;;;;;;6.60;2.88;;;;;;;3.49;31.34;102173.03;5065035;28;20080;-73
2022/03/11 08:51:55;;;;;;;5.88;3.55;;;;;;;3.57;31.09;102172.97;5066106;28;20056;-72
2022/03/11 08:54:22;;;;;;;7.93;4.10;;;;;;;3.78;30.70;102163.97;5062893;28;20370;-73
2022/03/11 08:56:49;;;;;;;12.02;5.43;;;;;;;3.91;30.04;102159.44;5062726;28;20051;-72
2022/03/11 08:59:16;;;;;;;10.95;5.18;;;;;;;4.07;29.74;102160.94;5062175;28;20044;-74
2022/03/11 09:01:44;;;;;;;5.70;3.42;;;;;;;4.21;29.33;102164.22;5065209;28;20041;-75
2022/03/11 09:04:12;;;;;;;5.80;3.17;;;;;;;4.23;29.13;102153.72;5064389;28;20049;-73
2022/03/11 09:06:39;;;;;;;4.80;1.85;;;;;;;4.26;29.19;102161.53;5063255;28;20704;-76
2022/03/11 09:09:06;;;;;;;6.88;3.78;;;;;;;4.33;28.45;102157.91;5063591;28;20234;-74
2022/03/11 09:11:33;;;;;;;9.35;4.65;;;;;;;4.49;28.12;102152.47;5062340;28;20109;-74
2022/03/11 09:14:00;;;;;;;7.28;4.07;;;;;;;4.58;27.96;102154.91;5062538;28;20068;-73
2022/03/11 09:16:27;;;;;;;8.38;4.72;;;;;;;4.71;27.87;102156.41;5062507;28;20060;-73
2022/03/11 09:18:56;;;;;;;9.63;5.13;;;;;;;4.88;27.33;102155.25;5061328;28;20124;-73
2022/03/11 09:21:23;;;;;;;8.27;4.38;;;;;;;5.15;27.13;102153.91;5062898;28;20056;-75
2022/03/11 09:23:49;;;;;;;10.90;4.57;;;;;;;5.35;26.90;102153.50;5060457;28;20064;-73
2022/03/11 09:26:17;;;;;;;8.15;4.18;;;;;;;5.63;27.08;102152.91;5058846;28;20056;-74
2022/03/11 09:28:44;;;;;;;9.18;3.42;;;;;;;5.81;26.80;102155.13;5062579;28;20128;-73
2022/03/11 09:31:11;;;;;;;7.60;4.40;;;;;;;5.62;26.52;102152.06;5062899;28;20049;-73
2022/03/11 09:33:39;;;;;;;6.88;3.17;;;;;;;5.40;26.54;102159.47;5060447;28;20040;-75
2022/03/11 09:36:08;;;;;;;4.45;2.70;;;;;;;5.22;26.43;102158.13;5062014;28;20152;-73
2022/03/11 09:38:37;;;;;;;7.50;3.40;;;;;;;5.26;26.62;102157.16;5061203;28;20071;-73
2022/03/11 09:41:05;;;;;;;10.02;3.58;;;;;;;5.44;26.40;102155.94;5060679;28;20052;-72
2022/03/11 09:43:32;;;;;;;15.98;5.82;;;;;;;5.50;26.05;102161.03;5061967;28;20636;-72
2022/03/11 09:46:00;;;;;;;8.70;3.83;;;;;;;5.52;25.43;102140.88;5060553;28;20052;-73
2022/03/11 09:48:27;;;;;;;9.77;3.63;;;;;;;5.57;25.44;102155.69;5061211;28;20141;-71
2022/03/11 09:50:55;;;;;;;7.20;3.38;;;;;;;5.61;25.46;102149.47;5062301;28;20083;-72
2022/03/11 09:53:24;;;;;;;11.95;5.13;;;;;;;5.47;25.48;102144.50;5060404;28;20054;-73
2022/03/11 09:55:51;;;;;;;11.10;4.40;;;;;;;5.52;25.14;102155.75;5060431;28;20048;-71
2022/03/11 09:58:18;;;;;;;10.35;3.83;;;;;;;5.61;25.47;102137.22;5061994;28;20052;-72
2022/03/11 10:00:48;;;;;;;9.77;5.40;;;;;;;5.67;25.50;102136.22;5062541;28;20083;-73
2022/03/11 10:03:15;;;;;;;8.35;4.38;;;;;;;5.74;24.84;102132.56;5063344;28;20048;-72
2022/03/11 10:05:47;;;;;;;7.82;3.70;;;;;;;6.08;24.88;102130.06;5062987;28;20087;-76
2022/03/11 10:08:15;;;;;;;7.20;3.47;;;;;;;6.00;24.80;102139.88;5062784;28;20055;-74
2022/03/11 10:10:44;;;;;;;10.35;5.43;;;;;;;5.98;24.20;102140.81;5061963;28;20053;-72
2022/03/11 10:13:12;;;;;;;9.25;4.32;;;;;;;5.99;24.38;102130.28;5067409;28;20072;-71
2022/03/11 10:15:40;;;;;;;7.72;4.15;;;;;;;6.04;24.54;102130.19;5069262;28;20056;-74
2022/03/11 10:18:11;;;;;;;9.95;4.97;;;;;;;6.16;24.28;102129.91;5067054;28;20523;-73
2022/03/11 10:20:38;;;;;;;10.18;5.22;;;;;;;6.22;23.88;102124.50;5065874;28;20080;-75
2022/03/11 10:23:10;;;;;;;10.52;4.65;;;;;;;6.34;24.03;102119.84;5062542;28;20047;-77
2022/03/11 10:25:37;;;;;;;10.27;4.13;;;;;;;6.41;23.63;102122.28;5064321;28;20051;-71
2022/03/11 10:28:08;;;;;;;8.20;4.45;;;;;;;6.46;23.00;102117.78;5064851;28;20392;-73
2022/03/11 10:30:37;;;;;;;6.30;3.92;;;;;;;6.42;22.53;102120.50;5065761;28;20610;-74
2022/03/11 10:33:07;;;;;;;7.93;3.38;;;;;;;6.30;22.74;102117.31;5066242;28;20055;-73
2022/03/11 10:35:36;;;;;;;7.50;3.92;;;;;;;6.35;22.70;102113.69;5064352;28;20247;-75
2022/03/11 10:38:07;;;;;;;5.72;3.40;;;;;;;6.37;22.04;102112.75;5063588;28;20053;-74
2022/03/11 10:40:36;;;;;;;5.70;2.95;;;;;;;6.32;21.97;102112.88;5063398;28;20080;-74
2022/03/11 10:43:17;;;;;;;5.70;3.22;;;;;;;6.37;21.95;102118.00;5063469;28;20055;-71
2022/03/11 10:45:47;;;;;;;6.97;4.53;;;;;;;6.42;21.84;102110.88;5066618;28;20169;-74
2022/03/11 10:48:17;;;;;;;8.02;3.67;;;;;;;6.42;22.25;102108.25;5064736;28;20064;-73
2022/03/11 10:50:44;;;;;;;6.25;3.90;;;;;;;6.46;22.51;102114.28;5065400;28;20049;-73
2022/03/11 10:53:12;;;;;;;5.15;2.67;;;;;;;6.60;22.60;102114.78;5060856;28;20075;-73
2022/03/11 10:55:42;;;;;;;6.72;4.85;;;;;;;6.58;22.72;102110.50;5063705;28;20056;-72
2022/03/11 10:58:16;;;;;;;10.30;4.20;;;;;;;6.53;22.25;102105.34;5062077;28;20045;-73
2022/03/11 11:00:44;;;;;;;8.02;4.00;;;;;;;6.61;22.52;102111.28;5061242;28;20098;-73
2022/03/11 11:03:12;;;;;;;9.60;3.53;;;;;;;6.67;22.58;102105.84;5063729;28;20104;-71
2022/03/11 11:05:39;;;;;;;5.72;3.03;;;;;;;6.68;22.47;102104.97;5063140;28;20102;-71
2022/03/11 11:08:07;;;;;;;6.75;3.30;;;;;;;6.60;22.19;102104.28;5064028;28;20048;-73
2022/03/11 11:10:37;;;;;;;5.05;3.53;;;;;;;6.60;22.60;102104.28;5066772;28;20193;-72
2022/03/11 11:13:04;;;;;;;5.68;3.30;;;;;;;6.64;22.00;102098.03;5063398;28;20140;-72
2022/03/11 11:15:33;;;;;;;4.63;3.95;;;;;;;6.42;22.14;102099.53;5062024;28;20049;-73
2022/03/11 11:18:07;;;;;;;6.07;3.40;;;;;;;6.29;22.36;102094.56;5061533;28;20523;-71
2022/03/11 11:20:45;;;;;;;5.55;3.05;;;;;;;6.34;22.35;102097.09;5061982;28;20569;-73
2022/03/11 11:23:13;;;;;;;7.85;3.83;;;;;;;6.20;22.26;102086.94;5060606;28;20168;-72